sensor_id;sensor_type;location;lat;lon;timestamp;P1;durP1;ratioP1;P2;durP2;ratioP2
43419;SDS011;29017;51.514;-0.178;2023-06-22T00:00:22;6.18;;;1.98;;
43419;SDS011;29017;51.514;-0.178;2023-06-22T00:02:49;5.78;;;1.80;;
43419;SDS011;29017;51.514;-0.178;2023-06-22T00:05:17;4.35;;;1.80;;
43419;SDS011;29017;51.514;-0.178;2023-06-22T00:07:44;4.95;;;2.08;;
43419;SDS011;29017;51.514;-0.178;2023-06-22T00:10:11;5.65;;;2.20;;
43419;SDS011;29017;51.514;-0.178;2023-06-22T00:12:39;6.50;;;2.08;;
43419;SDS011;29017;51.514;-0.178;2023-06-22T00:15:06;5.97;;;2.35;;
43419;SDS011;29017;51.514;-0.178;2023-06-22T00:17:34;4.40;;;2.13;;
43419;SDS011;29017;51.514;-0.178;2023-06-22T00:20:01;5.95;;;2.13;;
43419;SDS011;29017;51.514;-0.178;2023-06-22T00:22:32;5.00;;;1.85;;
43419;SDS011;29017;51.514;-0.178;2023-06-22T00:27:34;3.90;;;2.10;;
43419;SDS011;29017;51.514;-0.178;2023-06-22T00:30:02;3.92;;;2.05;;
43419;SDS011;29017;51.514;-0.178;2023-06-22T00:32:30;3.65;;;2.10;;
43419;SDS011;29017;51.514;-0.178;2023-06-22T00:34:58;5.40;;;2.83;;
43419;SDS011;29017;51.514;-0.178;2023-06-22T00:37:25;6.28;;;2.30;;
43419;SDS011;29017;51.514;-0.178;2023-06-22T00:39:56;4.65;;;2.13;;
43419;SDS011;29017;51.514;-0.178;2023-06-22T00:42:23;4.43;;;2.55;;
43419;SDS011;29017;51.514;-0.178;2023-06-22T00:44:51;5.40;;;2.17;;
43419;SDS011;29017;51.514;-0.178;2023-06-22T00:47:18;5.35;;;2.22;;
43419;SDS011;29017;51.514;-0.178;2023-06-22T00:49:46;4.43;;;2.60;;
43419;SDS011;29017;51.514;-0.178;2023-06-22T00:52:15;3.97;;;2.25;;
43419;SDS011;29017;51.514;-0.178;2023-06-22T00:54:47;6.68;;;2.60;;
43419;SDS011;29017;51.514;-0.178;2023-06-22T00:57:15;5.80;;;2.53;;
43419;SDS011;29017;51.514;-0.178;2023-06-22T00:59:44;8.35;;;2.42;;
43419;SDS011;29017;51.514;-0.178;2023-06-22T01:02:12;5.35;;;2.45;;
43419;SDS011;29017;51.514;-0.178;2023-06-22T01:04:40;7.75;;;2.38;;
43419;SDS011;29017;51.514;-0.178;2023-06-22T01:09:56;5.75;;;2.47;;
43419;SDS011;29017;51.514;-0.178;2023-06-22T01:12:26;6.65;;;2.83;;
43419;SDS011;29017;51.514;-0.178;2023-06-22T01:17:43;5.53;;;2.60;;
43419;SDS011;29017;51.514;-0.178;2023-06-22T01:20:11;7.20;;;3.10;;
43419;SDS011;29017;51.514;-0.178;2023-06-22T01:22:47;8.27;;;3.15;;
43419;SDS011;29017;51.514;-0.178;2023-06-22T01:25:43;6.72;;;2.33;;
43419;SDS011;29017;51.514;-0.178;2023-06-22T01:28:19;5.82;;;2.75;;
43419;SDS011;29017;51.514;-0.178;2023-06-22T01:30:53;6.70;;;2.60;;
43419;SDS011;29017;51.514;-0.178;2023-06-22T01:33:32;3.95;;;2.17;;
43419;SDS011;29017;51.514;-0.178;2023-06-22T01:36:02;4.95;;;2.55;;
43419;SDS011;29017;51.514;-0.178;2023-06-22T01:38:31;6.13;;;3.10;;
43419;SDS011;29017;51.514;-0.178;2023-06-22T01:41:00;4.15;;;2.33;;
43419;SDS011;29017;51.514;-0.178;2023-06-22T01:43:29;5.60;;;2.90;;
43419;SDS011;29017;51.514;-0.178;2023-06-22T01:46:00;10.35;;;3.13;;
43419;SDS011;29017;51.514;-0.178;2023-06-22T01:48:28;7.18;;;4.13;;
43419;SDS011;29017;51.514;-0.178;2023-06-22T01:50:55;6.70;;;3.08;;
43419;SDS011;29017;51.514;-0.178;2023-06-22T01:53:23;7.78;;;3.10;;
43419;SDS011;29017;51.514;-0.178;2023-06-22T01:55:51;6.22;;;2.95;;
43419;SDS011;29017;51.514;-0.178;2023-06-22T01:58:20;7.47;;;3.17;;
43419;SDS011;29017;51.514;-0.178;2023-06-22T02:03:37;5.05;;;3.00;;
43419;SDS011;29017;51.514;-0.178;2023-06-22T02:08:57;6.45;;;3.22;;
43419;SDS011;29017;51.514;-0.178;2023-06-22T02:11:28;7.80;;;3.10;;
43419;SDS011;29017;51.514;-0.178;2023-06-22T02:13:57;5.97;;;3.55;;
43419;SDS011;29017;51.514;-0.178;2023-06-22T02:16:25;4.38;;;2.83;;
43419;SDS011;29017;51.514;-0.178;2023-06-22T02:18:56;8.53;;;3.27;;
43419;SDS011;29017;51.514;-0.178;2023-06-22T02:21:29;8.07;;;3.33;;
43419;SDS011;29017;51.514;-0.178;2023-06-22T02:23:57;8.45;;;3.08;;
43419;SDS011;29017;51.514;-0.178;2023-06-22T02:26:25;7.38;;;3.55;;
43419;SDS011;29017;51.514;-0.178;2023-06-22T02:28:54;6.22;;;3.33;;
43419;SDS011;29017;51.514;-0.178;2023-06-22T02:31:21;4.93;;;3.00;;
43419;SDS011;29017;51.514;-0.178;2023-06-22T02:33:48;8.18;;;2.90;;
43419;SDS011;29017;51.514;-0.178;2023-06-22T02:36:16;6.03;;;3.35;;
43419;SDS011;29017;51.514;-0.178;2023-06-22T02:38:47;6.97;;;3.40;;
43419;SDS011;29017;51.514;-0.178;2023-06-22T02:41:15;7.93;;;3.28;;
43419;SDS011;29017;51.514;-0.178;2023-06-22T02:43:45;5.55;;;3.13;;
43419;SDS011;29017;51.514;-0.178;2023-06-22T02:46:13;9.63;;;3.63;;
43419;SDS011;29017;51.514;-0.178;2023-06-22T02:48:40;5.50;;;3.22;;
43419;SDS011;29017;51.514;-0.178;2023-06-22T02:51:10;7.13;;;3.47;;
43419;SDS011;29017;51.514;-0.178;2023-06-22T02:53:38;7.72;;;3.75;;
43419;SDS011;29017;51.514;-0.178;2023-06-22T02:56:05;5.20;;;3.55;;
43419;SDS011;29017;51.514;-0.178;2023-06-22T02:58:32;6.28;;;3.47;;
43419;SDS011;29017;51.514;-0.178;2023-06-22T03:01:05;8.73;;;3.85;;
43419;SDS011;29017;51.514;-0.178;2023-06-22T03:03:33;6.50;;;3.20;;
43419;SDS011;29017;51.514;-0.178;2023-06-22T03:06:00;7.53;;;3.65;;
43419;SDS011;29017;51.514;-0.178;2023-06-22T03:08:28;9.10;;;3.28;;
43419;SDS011;29017;51.514;-0.178;2023-06-22T03:10:55;7.30;;;3.80;;
43419;SDS011;29017;51.514;-0.178;2023-06-22T03:13:23;5.43;;;3.08;;
43419;SDS011;29017;51.514;-0.178;2023-06-22T03:15:51;6.63;;;3.10;;
43419;SDS011;29017;51.514;-0.178;2023-06-22T03:18:18;7.70;;;3.78;;
43419;SDS011;29017;51.514;-0.178;2023-06-22T03:20:45;6.53;;;3.80;;
43419;SDS011;29017;51.514;-0.178;2023-06-22T03:23:12;7.65;;;3.45;;
43419;SDS011;29017;51.514;-0.178;2023-06-22T03:25:40;12.38;;;4.13;;
43419;SDS011;29017;51.514;-0.178;2023-06-22T03:28:08;9.65;;;3.40;;
43419;SDS011;29017;51.514;-0.178;2023-06-22T03:30:35;6.65;;;3.83;;
43419;SDS011;29017;51.514;-0.178;2023-06-22T03:33:04;7.80;;;3.78;;
43419;SDS011;29017;51.514;-0.178;2023-06-22T03:35:32;9.60;;;3.63;;
43419;SDS011;29017;51.514;-0.178;2023-06-22T03:37:59;10.30;;;4.30;;
43419;SDS011;29017;51.514;-0.178;2023-06-22T03:40:26;8.90;;;3.78;;
43419;SDS011;29017;51.514;-0.178;2023-06-22T03:42:54;6.43;;;3.80;;
43419;SDS011;29017;51.514;-0.178;2023-06-22T03:45:22;8.82;;;4.20;;
43419;SDS011;29017;51.514;-0.178;2023-06-22T03:47:49;8.85;;;4.10;;
43419;SDS011;29017;51.514;-0.178;2023-06-22T03:50:16;7.32;;;3.28;;
43419;SDS011;29017;51.514;-0.178;2023-06-22T03:52:46;11.20;;;4.40;;
43419;SDS011;29017;51.514;-0.178;2023-06-22T03:55:14;9.18;;;4.22;;
43419;SDS011;29017;51.514;-0.178;2023-06-22T03:57:41;6.38;;;3.65;;
43419;SDS011;29017;51.514;-0.178;2023-06-22T04:00:08;8.80;;;3.83;;
43419;SDS011;29017;51.514;-0.178;2023-06-22T04:02:37;8.68;;;4.47;;
43419;SDS011;29017;51.514;-0.178;2023-06-22T04:05:04;6.78;;;3.58;;
43419;SDS011;29017;51.514;-0.178;2023-06-22T04:07:32;7.68;;;3.97;;
43419;SDS011;29017;51.514;-0.178;2023-06-22T04:09:59;6.80;;;4.00;;
43419;SDS011;29017;51.514;-0.178;2023-06-22T04:12:26;5.35;;;4.00;;
43419;SDS011;29017;51.514;-0.178;2023-06-22T04:14:54;6.38;;;4.00;;
43419;SDS011;29017;51.514;-0.178;2023-06-22T04:17:21;8.35;;;3.80;;
43419;SDS011;29017;51.514;-0.178;2023-06-22T04:19:51;10.35;;;4.47;;
43419;SDS011;29017;51.514;-0.178;2023-06-22T04:22:19;6.68;;;3.97;;
43419;SDS011;29017;51.514;-0.178;2023-06-22T04:24:46;6.68;;;4.30;;
43419;SDS011;29017;51.514;-0.178;2023-06-22T04:27:13;7.15;;;3.80;;
43419;SDS011;29017;51.514;-0.178;2023-06-22T04:29:40;6.53;;;3.97;;
43419;SDS011;29017;51.514;-0.178;2023-06-22T04:32:15;9.38;;;3.88;;
43419;SDS011;29017;51.514;-0.178;2023-06-22T04:34:43;8.23;;;4.07;;
43419;SDS011;29017;51.514;-0.178;2023-06-22T04:37:10;10.55;;;4.75;;
43419;SDS011;29017;51.514;-0.178;2023-06-22T04:39:42;10.13;;;4.67;;
43419;SDS011;29017;51.514;-0.178;2023-06-22T04:42:11;9.77;;;4.05;;
43419;SDS011;29017;51.514;-0.178;2023-06-22T04:44:39;10.05;;;3.83;;
43419;SDS011;29017;51.514;-0.178;2023-06-22T04:47:08;6.90;;;4.25;;
43419;SDS011;29017;51.514;-0.178;2023-06-22T04:49:36;7.82;;;4.22;;
43419;SDS011;29017;51.514;-0.178;2023-06-22T04:52:05;9.02;;;3.78;;
43419;SDS011;29017;51.514;-0.178;2023-06-22T04:54:34;9.45;;;4.35;;
43419;SDS011;29017;51.514;-0.178;2023-06-22T04:57:03;7.13;;;4.03;;
43419;SDS011;29017;51.514;-0.178;2023-06-22T04:59:37;9.40;;;4.40;;
43419;SDS011;29017;51.514;-0.178;2023-06-22T05:02:09;7.88;;;4.43;;
43419;SDS011;29017;51.514;-0.178;2023-06-22T05:04:36;8.55;;;4.30;;
43419;SDS011;29017;51.514;-0.178;2023-06-22T05:07:06;7.85;;;3.75;;
43419;SDS011;29017;51.514;-0.178;2023-06-22T05:09:33;10.57;;;4.35;;
43419;SDS011;29017;51.514;-0.178;2023-06-22T05:12:01;8.18;;;4.00;;
43419;SDS011;29017;51.514;-0.178;2023-06-22T05:14:29;7.35;;;4.30;;
43419;SDS011;29017;51.514;-0.178;2023-06-22T05:16:57;7.75;;;4.30;;
43419;SDS011;29017;51.514;-0.178;2023-06-22T05:19:25;10.23;;;5.03;;
43419;SDS011;29017;51.514;-0.178;2023-06-22T05:22:01;11.57;;;4.53;;
43419;SDS011;29017;51.514;-0.178;2023-06-22T05:24:28;9.20;;;4.40;;
43419;SDS011;29017;51.514;-0.178;2023-06-22T05:26:55;7.47;;;4.10;;
43419;SDS011;29017;51.514;-0.178;2023-06-22T05:29:22;7.53;;;4.40;;
43419;SDS011;29017;51.514;-0.178;2023-06-22T05:31:50;7.45;;;4.32;;
43419;SDS011;29017;51.514;-0.178;2023-06-22T05:34:17;10.23;;;5.22;;
43419;SDS011;29017;51.514;-0.178;2023-06-22T05:36:44;8.48;;;4.80;;
43419;SDS011;29017;51.514;-0.178;2023-06-22T05:39:12;9.10;;;4.38;;
43419;SDS011;29017;51.514;-0.178;2023-06-22T05:41:41;9.63;;;4.53;;
43419;SDS011;29017;51.514;-0.178;2023-06-22T05:44:10;8.10;;;4.90;;
43419;SDS011;29017;51.514;-0.178;2023-06-22T05:46:39;9.88;;;4.85;;
43419;SDS011;29017;51.514;-0.178;2023-06-22T05:49:12;8.60;;;4.50;;
43419;SDS011;29017;51.514;-0.178;2023-06-22T05:51:40;7.30;;;4.43;;
43419;SDS011;29017;51.514;-0.178;2023-06-22T05:54:07;13.15;;;5.35;;
43419;SDS011;29017;51.514;-0.178;2023-06-22T05:56:35;9.63;;;4.90;;
43419;SDS011;29017;51.514;-0.178;2023-06-22T05:59:03;7.28;;;4.70;;
43419;SDS011;29017;51.514;-0.178;2023-06-22T06:01:31;10.93;;;5.22;;
43419;SDS011;29017;51.514;-0.178;2023-06-22T06:04:02;10.60;;;4.97;;
43419;SDS011;29017;51.514;-0.178;2023-06-22T06:06:31;11.50;;;5.50;;
43419;SDS011;29017;51.514;-0.178;2023-06-22T06:08:58;11.30;;;5.57;;
43419;SDS011;29017;51.514;-0.178;2023-06-22T06:11:26;12.77;;;5.55;;
43419;SDS011;29017;51.514;-0.178;2023-06-22T06:13:53;8.40;;;4.97;;
43419;SDS011;29017;51.514;-0.178;2023-06-22T06:16:21;10.73;;;5.05;;
43419;SDS011;29017;51.514;-0.178;2023-06-22T06:18:49;9.15;;;5.45;;
43419;SDS011;29017;51.514;-0.178;2023-06-22T06:21:17;10.40;;;5.30;;
43419;SDS011;29017;51.514;-0.178;2023-06-22T06:23:44;10.48;;;5.50;;
43419;SDS011;29017;51.514;-0.178;2023-06-22T06:26:11;12.20;;;5.90;;
43419;SDS011;29017;51.514;-0.178;2023-06-22T06:28:39;9.73;;;5.88;;
43419;SDS011;29017;51.514;-0.178;2023-06-22T06:31:07;10.32;;;5.72;;
43419;SDS011;29017;51.514;-0.178;2023-06-22T06:33:35;9.95;;;5.50;;
43419;SDS011;29017;51.514;-0.178;2023-06-22T06:36:03;9.50;;;5.05;;
43419;SDS011;29017;51.514;-0.178;2023-06-22T06:38:30;9.50;;;5.63;;
43419;SDS011;29017;51.514;-0.178;2023-06-22T06:40:58;10.32;;;5.25;;
43419;SDS011;29017;51.514;-0.178;2023-06-22T06:43:26;11.98;;;6.20;;
43419;SDS011;29017;51.514;-0.178;2023-06-22T06:45:53;11.18;;;5.85;;
43419;SDS011;29017;51.514;-0.178;2023-06-22T06:48:21;11.15;;;5.72;;
43419;SDS011;29017;51.514;-0.178;2023-06-22T06:50:48;11.18;;;5.80;;
43419;SDS011;29017;51.514;-0.178;2023-06-22T06:53:15;10.50;;;5.68;;
43419;SDS011;29017;51.514;-0.178;2023-06-22T06:55:43;11.27;;;5.53;;
43419;SDS011;29017;51.514;-0.178;2023-06-22T07:00:44;10.88;;;5.65;;
43419;SDS011;29017;51.514;-0.178;2023-06-22T07:03:11;10.30;;;5.70;;
43419;SDS011;29017;51.514;-0.178;2023-06-22T07:05:39;9.95;;;5.97;;
43419;SDS011;29017;51.514;-0.178;2023-06-22T07:08:06;10.77;;;5.72;;
43419;SDS011;29017;51.514;-0.178;2023-06-22T07:10:33;14.15;;;5.85;;
43419;SDS011;29017;51.514;-0.178;2023-06-22T07:13:01;12.57;;;6.30;;
43419;SDS011;29017;51.514;-0.178;2023-06-22T07:15:28;11.98;;;6.43;;
43419;SDS011;29017;51.514;-0.178;2023-06-22T07:17:58;11.98;;;6.50;;
43419;SDS011;29017;51.514;-0.178;2023-06-22T07:20:25;12.65;;;6.35;;
43419;SDS011;29017;51.514;-0.178;2023-06-22T07:22:53;15.23;;;6.75;;
43419;SDS011;29017;51.514;-0.178;2023-06-22T07:25:20;13.68;;;6.50;;
43419;SDS011;29017;51.514;-0.178;2023-06-22T07:30:33;12.52;;;6.32;;
43419;SDS011;29017;51.514;-0.178;2023-06-22T07:33:01;13.63;;;6.10;;
43419;SDS011;29017;51.514;-0.178;2023-06-22T07:35:31;11.85;;;6.53;;
43419;SDS011;29017;51.514;-0.178;2023-06-22T07:37:59;12.55;;;6.55;;
43419;SDS011;29017;51.514;-0.178;2023-06-22T07:40:31;11.65;;;5.82;;
43419;SDS011;29017;51.514;-0.178;2023-06-22T07:42:59;11.60;;;5.50;;
43419;SDS011;29017;51.514;-0.178;2023-06-22T07:45:26;9.43;;;4.55;;
43419;SDS011;29017;51.514;-0.178;2023-06-22T07:47:54;9.13;;;4.20;;
43419;SDS011;29017;51.514;-0.178;2023-06-22T07:50:21;9.00;;;4.55;;
43419;SDS011;29017;51.514;-0.178;2023-06-22T07:52:49;9.50;;;4.82;;
43419;SDS011;29017;51.514;-0.178;2023-06-22T07:55:19;10.98;;;4.90;;
43419;SDS011;29017;51.514;-0.178;2023-06-22T07:57:48;8.00;;;4.53;;
43419;SDS011;29017;51.514;-0.178;2023-06-22T08:00:16;9.30;;;4.18;;
43419;SDS011;29017;51.514;-0.178;2023-06-22T08:02:47;12.95;;;4.10;;
43419;SDS011;29017;51.514;-0.178;2023-06-22T08:05:15;11.95;;;4.85;;
43419;SDS011;29017;51.514;-0.178;2023-06-22T08:07:48;8.85;;;4.13;;
43419;SDS011;29017;51.514;-0.178;2023-06-22T08:10:16;9.32;;;4.32;;
43419;SDS011;29017;51.514;-0.178;2023-06-22T08:12:43;11.27;;;4.70;;
43419;SDS011;29017;51.514;-0.178;2023-06-22T08:15:13;11.07;;;4.20;;
43419;SDS011;29017;51.514;-0.178;2023-06-22T08:17:40;13.80;;;3.88;;
43419;SDS011;29017;51.514;-0.178;2023-06-22T08:20:09;9.15;;;4.13;;
43419;SDS011;29017;51.514;-0.178;2023-06-22T08:22:39;6.75;;;3.75;;
43419;SDS011;29017;51.514;-0.178;2023-06-22T08:25:08;8.85;;;4.03;;
43419;SDS011;29017;51.514;-0.178;2023-06-22T08:27:36;6.55;;;3.47;;
43419;SDS011;29017;51.514;-0.178;2023-06-22T08:30:04;8.50;;;3.50;;
43419;SDS011;29017;51.514;-0.178;2023-06-22T08:32:33;7.05;;;3.13;;
43419;SDS011;29017;51.514;-0.178;2023-06-22T08:35:00;5.95;;;3.38;;
43419;SDS011;29017;51.514;-0.178;2023-06-22T08:37:28;7.32;;;3.55;;
43419;SDS011;29017;51.514;-0.178;2023-06-22T08:40:03;6.25;;;3.88;;
43419;SDS011;29017;51.514;-0.178;2023-06-22T08:42:32;8.65;;;4.15;;
43419;SDS011;29017;51.514;-0.178;2023-06-22T08:45:00;7.28;;;3.03;;
43419;SDS011;29017;51.514;-0.178;2023-06-22T08:47:27;7.13;;;3.70;;
43419;SDS011;29017;51.514;-0.178;2023-06-22T08:49:55;12.02;;;3.97;;
43419;SDS011;29017;51.514;-0.178;2023-06-22T08:52:26;6.10;;;2.88;;
43419;SDS011;29017;51.514;-0.178;2023-06-22T08:54:53;6.85;;;2.90;;
43419;SDS011;29017;51.514;-0.178;2023-06-22T08:57:20;6.85;;;2.85;;
43419;SDS011;29017;51.514;-0.178;2023-06-22T08:59:48;6.85;;;3.75;;
43419;SDS011;29017;51.514;-0.178;2023-06-22T09:02:16;4.05;;;3.08;;
43419;SDS011;29017;51.514;-0.178;2023-06-22T09:04:45;6.47;;;2.42;;
43419;SDS011;29017;51.514;-0.178;2023-06-22T09:07:13;5.57;;;2.90;;
43419;SDS011;29017;51.514;-0.178;2023-06-22T09:09:40;6.30;;;2.30;;
43419;SDS011;29017;51.514;-0.178;2023-06-22T09:12:08;5.47;;;2.72;;
43419;SDS011;29017;51.514;-0.178;2023-06-22T09:14:36;5.78;;;2.30;;
43419;SDS011;29017;51.514;-0.178;2023-06-22T09:17:04;7.90;;;3.45;;
43419;SDS011;29017;51.514;-0.178;2023-06-22T09:19:32;4.70;;;2.97;;
43419;SDS011;29017;51.514;-0.178;2023-06-22T09:22:01;9.27;;;3.15;;
43419;SDS011;29017;51.514;-0.178;2023-06-22T09:24:31;6.25;;;2.38;;
43419;SDS011;29017;51.514;-0.178;2023-06-22T09:26:59;6.32;;;2.20;;
43419;SDS011;29017;51.514;-0.178;2023-06-22T09:29:29;5.55;;;2.60;;
43419;SDS011;29017;51.514;-0.178;2023-06-22T09:32:00;8.27;;;3.25;;
43419;SDS011;29017;51.514;-0.178;2023-06-22T09:34:29;6.28;;;3.67;;
43419;SDS011;29017;51.514;-0.178;2023-06-22T09:36:58;6.15;;;2.17;;
43419;SDS011;29017;51.514;-0.178;2023-06-22T09:39:27;3.72;;;2.08;;
43419;SDS011;29017;51.514;-0.178;2023-06-22T09:41:54;7.50;;;2.63;;
43419;SDS011;29017;51.514;-0.178;2023-06-22T09:44:22;4.60;;;2.20;;
43419;SDS011;29017;51.514;-0.178;2023-06-22T09:46:49;7.72;;;2.13;;
43419;SDS011;29017;51.514;-0.178;2023-06-22T09:49:17;5.45;;;1.73;;
43419;SDS011;29017;51.514;-0.178;2023-06-22T09:51:53;3.00;;;1.85;;
43419;SDS011;29017;51.514;-0.178;2023-06-22T09:54:20;4.43;;;1.98;;
43419;SDS011;29017;51.514;-0.178;2023-06-22T09:56:47;5.72;;;2.28;;
43419;SDS011;29017;51.514;-0.178;2023-06-22T09:59:15;4.88;;;2.10;;
43419;SDS011;29017;51.514;-0.178;2023-06-22T10:01:44;5.05;;;2.08;;
43419;SDS011;29017;51.514;-0.178;2023-06-22T10:04:12;4.32;;;2.03;;
43419;SDS011;29017;51.514;-0.178;2023-06-22T10:06:39;9.00;;;3.40;;
43419;SDS011;29017;51.514;-0.178;2023-06-22T10:09:07;5.35;;;2.60;;
43419;SDS011;29017;51.514;-0.178;2023-06-22T10:11:35;6.45;;;2.92;;
43419;SDS011;29017;51.514;-0.178;2023-06-22T10:14:03;6.10;;;2.20;;
43419;SDS011;29017;51.514;-0.178;2023-06-22T10:16:31;5.32;;;2.00;;
43419;SDS011;29017;51.514;-0.178;2023-06-22T10:18:59;7.07;;;2.10;;
43419;SDS011;29017;51.514;-0.178;2023-06-22T10:21:27;5.40;;;2.75;;
43419;SDS011;29017;51.514;-0.178;2023-06-22T10:23:55;4.97;;;2.15;;
43419;SDS011;29017;51.514;-0.178;2023-06-22T10:26:22;2.83;;;1.70;;
43419;SDS011;29017;51.514;-0.178;2023-06-22T10:28:50;3.28;;;1.33;;
43419;SDS011;29017;51.514;-0.178;2023-06-22T10:31:36;2.88;;;1.25;;
43419;SDS011;29017;51.514;-0.178;2023-06-22T10:34:05;3.70;;;1.70;;
43419;SDS011;29017;51.514;-0.178;2023-06-22T10:36:32;3.22;;;1.40;;
43419;SDS011;29017;51.514;-0.178;2023-06-22T10:38:59;3.92;;;1.40;;
43419;SDS011;29017;51.514;-0.178;2023-06-22T10:41:28;6.05;;;1.60;;
43419;SDS011;29017;51.514;-0.178;2023-06-22T10:43:57;5.22;;;1.63;;
43419;SDS011;29017;51.514;-0.178;2023-06-22T10:46:26;3.33;;;1.73;;
43419;SDS011;29017;51.514;-0.178;2023-06-22T10:48:54;2.83;;;1.80;;
43419;SDS011;29017;51.514;-0.178;2023-06-22T10:51:24;6.30;;;2.00;;
43419;SDS011;29017;51.514;-0.178;2023-06-22T10:53:52;4.80;;;1.50;;
43419;SDS011;29017;51.514;-0.178;2023-06-22T10:56:21;4.50;;;1.73;;
43419;SDS011;29017;51.514;-0.178;2023-06-22T10:58:48;5.63;;;1.75;;
43419;SDS011;29017;51.514;-0.178;2023-06-22T11:01:17;5.25;;;1.65;;
43419;SDS011;29017;51.514;-0.178;2023-06-22T11:04:01;3.13;;;1.67;;
43419;SDS011;29017;51.514;-0.178;2023-06-22T11:06:29;3.78;;;1.58;;
43419;SDS011;29017;51.514;-0.178;2023-06-22T11:08:57;4.60;;;1.63;;
43419;SDS011;29017;51.514;-0.178;2023-06-22T11:11:49;3.83;;;0.90;;
43419;SDS011;29017;51.514;-0.178;2023-06-22T11:14:18;4.55;;;1.38;;
43419;SDS011;29017;51.514;-0.178;2023-06-22T11:16:48;2.78;;;1.10;;
43419;SDS011;29017;51.514;-0.178;2023-06-22T11:19:16;2.40;;;1.20;;
43419;SDS011;29017;51.514;-0.178;2023-06-22T11:21:46;2.40;;;1.05;;
43419;SDS011;29017;51.514;-0.178;2023-06-22T11:24:14;4.18;;;1.35;;
43419;SDS011;29017;51.514;-0.178;2023-06-22T11:26:42;2.08;;;1.00;;
43419;SDS011;29017;51.514;-0.178;2023-06-22T11:29:10;2.95;;;1.02;;
43419;SDS011;29017;51.514;-0.178;2023-06-22T11:31:53;2.13;;;1.30;;
43419;SDS011;29017;51.514;-0.178;2023-06-22T11:34:20;3.10;;;1.17;;
43419;SDS011;29017;51.514;-0.178;2023-06-22T11:36:48;4.38;;;1.10;;
43419;SDS011;29017;51.514;-0.178;2023-06-22T11:39:15;1.67;;;0.85;;
43419;SDS011;29017;51.514;-0.178;2023-06-22T11:41:46;2.53;;;1.10;;
43419;SDS011;29017;51.514;-0.178;2023-06-22T11:44:13;1.77;;;0.82;;
43419;SDS011;29017;51.514;-0.178;2023-06-22T11:46:41;1.65;;;0.80;;
43419;SDS011;29017;51.514;-0.178;2023-06-22T11:49:08;2.55;;;0.80;;
43419;SDS011;29017;51.514;-0.178;2023-06-22T11:51:35;3.10;;;1.20;;
43419;SDS011;29017;51.514;-0.178;2023-06-22T11:54:03;4.07;;;0.90;;
43419;SDS011;29017;51.514;-0.178;2023-06-22T11:56:31;3.80;;;1.10;;
43419;SDS011;29017;51.514;-0.178;2023-06-22T11:58:59;4.00;;;1.05;;
43419;SDS011;29017;51.514;-0.178;2023-06-22T12:01:27;4.65;;;0.90;;
43419;SDS011;29017;51.514;-0.178;2023-06-22T12:03:54;2.60;;;1.00;;
43419;SDS011;29017;51.514;-0.178;2023-06-22T12:06:22;3.03;;;0.98;;
43419;SDS011;29017;51.514;-0.178;2023-06-22T12:08:49;2.75;;;0.93;;
43419;SDS011;29017;51.514;-0.178;2023-06-22T12:11:18;2.38;;;0.90;;
43419;SDS011;29017;51.514;-0.178;2023-06-22T12:13:46;5.35;;;1.92;;
43419;SDS011;29017;51.514;-0.178;2023-06-22T12:16:13;2.35;;;1.00;;
43419;SDS011;29017;51.514;-0.178;2023-06-22T12:18:40;3.63;;;0.75;;
43419;SDS011;29017;51.514;-0.178;2023-06-22T12:21:08;3.67;;;0.70;;
43419;SDS011;29017;51.514;-0.178;2023-06-22T12:23:35;1.77;;;0.98;;
43419;SDS011;29017;51.514;-0.178;2023-06-22T12:26:03;2.58;;;1.00;;
43419;SDS011;29017;51.514;-0.178;2023-06-22T12:28:30;5.20;;;1.10;;
43419;SDS011;29017;51.514;-0.178;2023-06-22T12:30:58;2.22;;;0.80;;
43419;SDS011;29017;51.514;-0.178;2023-06-22T12:33:25;3.92;;;0.98;;
43419;SDS011;29017;51.514;-0.178;2023-06-22T12:35:52;2.58;;;0.90;;
43419;SDS011;29017;51.514;-0.178;2023-06-22T12:38:19;2.92;;;0.85;;
43419;SDS011;29017;51.514;-0.178;2023-06-22T12:40:47;2.00;;;0.60;;
43419;SDS011;29017;51.514;-0.178;2023-06-22T12:43:16;3.10;;;0.70;;
43419;SDS011;29017;51.514;-0.178;2023-06-22T12:45:43;5.70;;;0.90;;
43419;SDS011;29017;51.514;-0.178;2023-06-22T12:48:10;2.53;;;0.90;;
43419;SDS011;29017;51.514;-0.178;2023-06-22T12:50:39;2.90;;;0.80;;
43419;SDS011;29017;51.514;-0.178;2023-06-22T12:53:07;4.28;;;1.15;;
43419;SDS011;29017;51.514;-0.178;2023-06-22T12:55:35;5.93;;;1.00;;
43419;SDS011;29017;51.514;-0.178;2023-06-22T12:58:02;4.40;;;1.20;;
43419;SDS011;29017;51.514;-0.178;2023-06-22T13:00:30;3.05;;;0.90;;
43419;SDS011;29017;51.514;-0.178;2023-06-22T13:02:58;2.03;;;0.82;;
43419;SDS011;29017;51.514;-0.178;2023-06-22T13:05:25;1.95;;;0.80;;
43419;SDS011;29017;51.514;-0.178;2023-06-22T13:07:53;2.42;;;0.85;;
43419;SDS011;29017;51.514;-0.178;2023-06-22T13:10:21;1.60;;;0.80;;
43419;SDS011;29017;51.514;-0.178;2023-06-22T13:12:49;3.30;;;0.77;;
43419;SDS011;29017;51.514;-0.178;2023-06-22T13:15:16;2.03;;;0.80;;
43419;SDS011;29017;51.514;-0.178;2023-06-22T13:17:43;4.43;;;0.70;;
43419;SDS011;29017;51.514;-0.178;2023-06-22T13:20:11;3.30;;;0.80;;
43419;SDS011;29017;51.514;-0.178;2023-06-22T13:22:38;4.32;;;1.08;;
43419;SDS011;29017;51.514;-0.178;2023-06-22T13:25:07;3.33;;;0.65;;
43419;SDS011;29017;51.514;-0.178;2023-06-22T13:27:40;3.53;;;0.90;;
43419;SDS011;29017;51.514;-0.178;2023-06-22T13:30:08;4.15;;;0.80;;
43419;SDS011;29017;51.514;-0.178;2023-06-22T13:32:40;1.77;;;0.77;;
43419;SDS011;29017;51.514;-0.178;2023-06-22T13:35:09;3.92;;;0.77;;
43419;SDS011;29017;51.514;-0.178;2023-06-22T13:37:38;2.70;;;0.70;;
43419;SDS011;29017;51.514;-0.178;2023-06-22T13:40:06;2.45;;;1.00;;
43419;SDS011;29017;51.514;-0.178;2023-06-22T13:42:34;4.13;;;1.00;;
43419;SDS011;29017;51.514;-0.178;2023-06-22T13:45:02;3.80;;;0.90;;
43419;SDS011;29017;51.514;-0.178;2023-06-22T13:47:31;2.65;;;0.85;;
43419;SDS011;29017;51.514;-0.178;2023-06-22T13:50:00;1.52;;;0.70;;
43419;SDS011;29017;51.514;-0.178;2023-06-22T13:52:28;1.98;;;0.75;;
43419;SDS011;29017;51.514;-0.178;2023-06-22T13:54:56;3.20;;;0.73;;
43419;SDS011;29017;51.514;-0.178;2023-06-22T13:57:25;2.25;;;1.00;;
43419;SDS011;29017;51.514;-0.178;2023-06-22T13:59:52;2.53;;;0.70;;
43419;SDS011;29017;51.514;-0.178;2023-06-22T14:02:20;2.53;;;0.90;;
43419;SDS011;29017;51.514;-0.178;2023-06-22T14:04:49;3.75;;;1.40;;
43419;SDS011;29017;51.514;-0.178;2023-06-22T14:07:18;2.85;;;0.90;;
43419;SDS011;29017;51.514;-0.178;2023-06-22T14:09:47;3.13;;;0.80;;
43419;SDS011;29017;51.514;-0.178;2023-06-22T14:12:17;2.70;;;0.80;;
43419;SDS011;29017;51.514;-0.178;2023-06-22T14:14:45;1.55;;;0.80;;
43419;SDS011;29017;51.514;-0.178;2023-06-22T14:17:13;4.22;;;1.25;;
43419;SDS011;29017;51.514;-0.178;2023-06-22T14:19:43;4.20;;;0.82;;
43419;SDS011;29017;51.514;-0.178;2023-06-22T14:22:11;1.40;;;0.80;;
43419;SDS011;29017;51.514;-0.178;2023-06-22T14:24:40;3.38;;;0.85;;
43419;SDS011;29017;51.514;-0.178;2023-06-22T14:27:08;3.80;;;0.80;;
43419;SDS011;29017;51.514;-0.178;2023-06-22T14:29:38;3.05;;;0.80;;
43419;SDS011;29017;51.514;-0.178;2023-06-22T14:32:07;3.10;;;0.70;;
43419;SDS011;29017;51.514;-0.178;2023-06-22T14:34:37;2.72;;;0.80;;
43419;SDS011;29017;51.514;-0.178;2023-06-22T14:37:06;2.55;;;0.80;;
43419;SDS011;29017;51.514;-0.178;2023-06-22T14:39:36;1.52;;;0.70;;
43419;SDS011;29017;51.514;-0.178;2023-06-22T14:42:03;3.25;;;0.90;;
43419;SDS011;29017;51.514;-0.178;2023-06-22T14:44:31;1.52;;;0.70;;
43419;SDS011;29017;51.514;-0.178;2023-06-22T14:46:59;1.48;;;0.60;;
43419;SDS011;29017;51.514;-0.178;2023-06-22T14:49:26;2.25;;;0.82;;
43419;SDS011;29017;51.514;-0.178;2023-06-22T14:51:53;5.78;;;0.90;;
43419;SDS011;29017;51.514;-0.178;2023-06-22T14:54:20;4.03;;;0.80;;
43419;SDS011;29017;51.514;-0.178;2023-06-22T14:56:48;2.83;;;0.90;;
43419;SDS011;29017;51.514;-0.178;2023-06-22T14:59:17;2.28;;;0.98;;